createdAt,value
2018-06-22T00:01:07.259Z,8.68
2018-06-22T00:03:40.202Z,12.05
2018-06-22T00:06:13.148Z,10.57
2018-06-22T00:08:47.446Z,9.13
2018-06-22T00:11:18.192Z,8.48
2018-06-22T00:13:49.299Z,10.65
2018-06-22T00:16:20.783Z,9.02
2018-06-22T00:18:50.904Z,6.87
2018-06-22T00:21:24.834Z,8.07
2018-06-22T00:23:59.442Z,12.95
2018-06-22T00:26:30.807Z,8.75
2018-06-22T00:29:03.204Z,11.38
2018-06-22T00:31:36.403Z,11.60
2018-06-22T00:34:09.346Z,15.07
2018-06-22T00:36:43.835Z,11.07
2018-06-22T00:39:19.126Z,8.25
2018-06-22T00:41:54.711Z,9.57
2018-06-22T00:44:28.783Z,11.02
2018-06-22T00:47:04.254Z,11.55
2018-06-22T00:49:36.628Z,7.95
2018-06-22T00:52:09.133Z,8.68
2018-06-22T00:54:43.674Z,8.93
2018-06-22T00:57:13.735Z,12.27
2018-06-22T00:59:44.680Z,8.75
2018-06-22T01:02:14.864Z,14.20
2018-06-22T01:04:47.287Z,12.13
2018-06-22T01:07:20.852Z,10.65
2018-06-22T01:09:55.466Z,10.55
2018-06-22T01:12:28.419Z,6.87
2018-06-22T01:15:00.081Z,12.35
2018-06-22T01:17:33.594Z,11.73
2018-06-22T01:20:06.588Z,9.27
2018-06-22T01:22:39.781Z,10.32
2018-06-22T01:25:12.861Z,9.40
2018-06-22T01:27:43.892Z,9.68
2018-06-22T01:30:15.425Z,10.27
2018-06-22T01:32:49.194Z,8.50
2018-06-22T01:35:23.263Z,6.50
2018-06-22T01:37:56.488Z,9.00
2018-06-22T01:40:30.134Z,11.27
2018-06-22T01:43:04.802Z,7.10
2018-06-22T01:45:36.346Z,11.45
2018-06-22T01:48:09.392Z,7.80
2018-06-22T01:50:42.643Z,8.73
2018-06-22T01:53:14.267Z,4.28
2018-06-22T01:55:48.644Z,12.70
2018-06-22T01:58:20.804Z,11.52
2018-06-22T02:00:52.137Z,10.57
2018-06-22T02:03:25.184Z,11.73
2018-06-22T02:05:58.381Z,10.55
2018-06-22T02:08:30.613Z,5.72
2018-06-22T02:11:02.281Z,7.35
2018-06-22T02:13:36.020Z,12.85
2018-06-22T02:16:09.233Z,13.00
2018-06-22T02:18:43.686Z,9.27
2018-06-22T02:21:14.432Z,10.20
2018-06-22T02:23:46.029Z,9.15
2018-06-22T02:26:18.519Z,13.77
2018-06-22T02:28:51.733Z,11.35
2018-06-22T02:31:22.496Z,11.02
2018-06-22T02:33:55.409Z,7.25
2018-06-22T02:36:26.403Z,14.13
2018-06-22T02:39:00.994Z,13.98
2018-06-22T02:41:35.560Z,5.15
2018-06-22T02:44:08.609Z,12.27
2018-06-22T02:46:40.243Z,11.75
2018-06-22T02:49:10.748Z,8.05
2018-06-22T02:51:44.838Z,12.02
2018-06-22T02:54:17.996Z,10.60
2018-06-22T02:56:51.796Z,12.85
2018-06-22T02:59:25.843Z,7.87
2018-06-22T03:01:58.516Z,8.20
2018-06-22T03:04:30.199Z,9.93
2018-06-22T03:06:59.892Z,7.18
2018-06-22T03:09:31.179Z,7.32
2018-06-22T03:12:04.395Z,9.65
2018-06-22T03:14:35.662Z,11.23
2018-06-22T03:17:04.622Z,11.23
2018-06-22T03:19:37.802Z,11.85
2018-06-22T03:22:10.439Z,7.93
2018-06-22T03:24:43.437Z,11.02
2018-06-22T03:27:16.908Z,8.30
2018-06-22T03:29:50.089Z,9.98
2018-06-22T03:32:21.856Z,14.23
2018-06-22T03:34:56.409Z,10.57
2018-06-22T03:37:29.414Z,9.32
2018-06-22T03:40:03.846Z,11.95
2018-06-22T03:42:36.752Z,9.82
2018-06-22T03:45:09.711Z,9.45
2018-06-22T03:47:42.994Z,8.57
2018-06-22T03:50:16.064Z,12.88
2018-06-22T03:52:49.657Z,12.30
2018-06-22T03:55:23.631Z,11.07
2018-06-22T03:57:58.061Z,9.98
2018-06-22T04:00:28.963Z,10.30
2018-06-22T04:03:00.538Z,10.57
2018-06-22T04:05:33.759Z,10.77
2018-06-22T04:08:08.355Z,13.30
2018-06-22T04:10:42.900Z,13.73
2018-06-22T04:13:16.077Z,17.15
2018-06-22T04:15:46.143Z,10.93
2018-06-22T04:18:17.529Z,11.68
2018-06-22T04:20:50.632Z,11.43
2018-06-22T04:23:23.686Z,4.65
2018-06-22T04:25:55.979Z,12.15
2018-06-22T04:28:27.422Z,10.05
2018-06-22T04:30:59.213Z,11.48
2018-06-22T04:33:32.114Z,8.30
2018-06-22T04:36:03.742Z,11.05
2018-06-22T04:38:37.921Z,8.75
2018-06-22T04:41:12.266Z,9.38
2018-06-22T04:43:45.430Z,9.82
2018-06-22T04:46:19.884Z,10.23
2018-06-22T04:48:51.799Z,14.90
2018-06-22T04:51:26.367Z,10.27
2018-06-22T04:53:59.601Z,13.68
2018-06-22T04:56:33.116Z,14.15
2018-06-22T04:59:05.251Z,16.35
2018-06-22T05:01:38.413Z,19.95
2018-06-22T05:04:09.196Z,13.80
2018-06-22T05:06:42.388Z,10.40
2018-06-22T05:09:16.951Z,14.65
2018-06-22T05:11:49.967Z,10.57
2018-06-22T05:14:21.001Z,15.07
2018-06-22T05:16:54.037Z,12.32
2018-06-22T05:19:28.488Z,14.98
2018-06-22T05:22:00.612Z,11.88
2018-06-22T05:24:35.213Z,9.18
2018-06-22T05:27:08.203Z,13.35
2018-06-22T05:29:41.288Z,14.98
2018-06-22T05:32:12.954Z,14.77
2018-06-22T05:34:46.113Z,16.23
2018-06-22T05:37:20.585Z,20.20
2018-06-22T05:39:55.256Z,15.48
2018-06-22T05:42:27.011Z,19.87
2018-06-22T05:45:01.392Z,14.23
2018-06-22T05:47:35.965Z,15.48
2018-06-22T05:50:07.818Z,15.20
2018-06-22T05:52:41.049Z,17.35
2018-06-22T05:55:15.079Z,21.42
2018-06-22T05:57:46.591Z,12.32
2018-06-22T06:00:20.537Z,20.77
2018-06-22T06:02:53.439Z,16.27
2018-06-22T06:05:26.300Z,10.68
2018-06-22T06:07:58.688Z,16.92
2018-06-22T06:10:33.249Z,15.18
2018-06-22T06:13:08.117Z,20.23
2018-06-22T06:15:42.164Z,24.15
2018-06-22T06:18:16.337Z,16.92
2018-06-22T06:20:49.496Z,12.63
2018-06-22T06:23:22.698Z,11.52
2018-06-22T06:25:55.623Z,16.67
2018-06-22T06:28:27.965Z,14.60
2018-06-22T06:30:59.953Z,14.18
2018-06-22T06:33:33.668Z,11.73
2018-06-22T06:36:07.893Z,15.00
2018-06-22T06:38:42.468Z,17.67
2018-06-22T06:41:15.853Z,17.08
2018-06-22T06:43:49.405Z,19.00
2018-06-22T06:46:23.290Z,16.83
2018-06-22T06:48:56.749Z,15.55
2018-06-22T06:51:31.165Z,17.35
2018-06-22T06:54:04.400Z,13.80
2018-06-22T06:56:37.494Z,25.42
2018-06-22T06:59:09.154Z,15.90
2018-06-22T07:01:41.424Z,25.65
2018-06-22T07:04:12.149Z,14.13
2018-06-22T07:06:46.821Z,20.65
2018-06-22T07:09:20.069Z,19.85
2018-06-22T07:11:51.713Z,21.00
2018-06-22T07:14:24.884Z,15.93
2018-06-22T07:16:59.467Z,16.20
2018-06-22T07:19:32.488Z,15.40
2018-06-22T07:22:06.762Z,23.08
2018-06-22T07:24:41.411Z,16.52
2018-06-22T07:27:14.202Z,19.17
2018-06-22T07:29:47.133Z,14.98
2018-06-22T07:32:21.885Z,11.98
2018-06-22T07:34:53.320Z,16.45
2018-06-22T07:37:24.766Z,17.10
2018-06-22T07:39:58.500Z,18.92
2018-06-22T07:42:33.004Z,24.00
2018-06-22T07:45:04.728Z,18.45
2018-06-22T07:47:36.275Z,13.07
2018-06-22T07:50:09.291Z,14.77
2018-06-22T07:52:41.363Z,13.98
2018-06-22T07:55:13.938Z,12.13
2018-06-22T07:57:46.950Z,11.68
2018-06-22T08:00:20.123Z,12.20
2018-06-22T08:02:54.496Z,11.75
2018-06-22T08:05:27.344Z,15.23
2018-06-22T08:08:00.362Z,13.65
2018-06-22T08:10:30.474Z,18.10
2018-06-22T08:13:04.948Z,10.38
2018-06-22T08:15:38.809Z,11.85
2018-06-22T08:18:10.165Z,16.92
2018-06-22T08:20:43.155Z,12.98
2018-06-22T08:23:13.237Z,10.10
2018-06-22T08:25:43.933Z,12.80
2018-06-22T08:28:18.437Z,11.15
2018-06-22T08:30:53.078Z,10.82
2018-06-22T08:33:26.244Z,8.95
2018-06-22T08:36:00.739Z,8.10
2018-06-22T08:38:32.255Z,11.98
2018-06-22T08:41:05.546Z,11.93
2018-06-22T08:43:38.536Z,9.73
2018-06-22T08:46:11.822Z,10.40
2018-06-22T08:48:44.871Z,10.98
2018-06-22T08:51:18.367Z,11.85
2018-06-22T08:53:49.303Z,12.63
2018-06-22T08:56:20.801Z,11.68
2018-06-22T08:58:52.265Z,8.35
2018-06-22T09:01:22.383Z,11.30
2018-06-22T09:03:53.728Z,9.93
2018-06-22T09:06:26.699Z,10.10
2018-06-22T09:08:57.555Z,13.25
2018-06-22T09:11:30.516Z,12.23
2018-06-22T09:14:03.551Z,15.48
2018-06-22T09:16:36.538Z,17.00
2018-06-22T09:19:09.537Z,12.45
2018-06-22T09:21:42.821Z,14.65
2018-06-22T09:24:17.206Z,10.25
2018-06-22T09:26:50.873Z,9.38
2018-06-22T09:29:22.452Z,13.73
2018-06-22T09:31:53.715Z,14.25
2018-06-22T09:34:25.191Z,7.18
2018-06-22T09:36:58.071Z,12.93
2018-06-22T09:39:29.475Z,14.82
2018-06-22T09:42:03.222Z,9.60
2018-06-22T09:44:42.532Z,10.70
2018-06-22T09:47:15.467Z,11.20
2018-06-22T09:49:47.501Z,10.65
2018-06-22T09:52:19.935Z,9.35
2018-06-22T09:54:54.539Z,9.55
2018-06-22T09:57:25.915Z,14.13
2018-06-22T09:59:59.616Z,7.43
2018-06-22T10:02:31.121Z,10.02
2018-06-22T10:05:04.368Z,7.80
2018-06-22T10:07:35.688Z,10.75
2018-06-22T10:10:07.441Z,6.97
2018-06-22T10:12:40.729Z,11.27
2018-06-22T10:15:13.754Z,9.60
2018-06-22T10:17:47.189Z,10.80
2018-06-22T10:20:20.101Z,11.25
2018-06-22T10:22:53.972Z,9.50
2018-06-22T10:25:28.485Z,10.20
2018-06-22T10:28:00.169Z,7.70
2018-06-22T10:30:32.445Z,11.82
2018-06-22T10:33:03.174Z,10.95
2018-06-22T10:35:36.145Z,8.48
2018-06-22T10:38:10.520Z,9.27
2018-06-22T10:40:44.430Z,9.00
2018-06-22T10:43:20.579Z,6.12
2018-06-22T10:45:52.238Z,7.90
2018-06-22T10:48:25.428Z,5.15
2018-06-22T10:50:56.832Z,9.23
2018-06-22T10:53:28.338Z,5.62
2018-06-22T10:56:01.250Z,7.10
2018-06-22T10:58:34.265Z,6.45
2018-06-22T11:01:07.265Z,7.37
2018-06-22T11:03:37.197Z,6.53
2018-06-22T11:06:09.468Z,6.57
2018-06-22T11:08:42.984Z,6.45
2018-06-22T11:11:16.147Z,3.70
2018-06-22T11:13:46.267Z,6.47
2018-06-22T11:16:19.105Z,4.28
2018-06-22T11:18:51.214Z,4.47
2018-06-22T11:21:26.122Z,4.12
2018-06-22T11:24:00.096Z,4.35
2018-06-22T11:26:33.092Z,7.95
2018-06-22T11:29:06.122Z,5.20
2018-06-22T11:31:39.409Z,6.68
2018-06-22T11:34:11.028Z,4.32
2018-06-22T11:36:43.074Z,6.22
2018-06-22T11:39:16.256Z,3.83
2018-06-22T11:41:49.121Z,5.32
2018-06-22T11:44:23.425Z,7.72
2018-06-22T11:46:55.097Z,7.25
2018-06-22T11:49:29.722Z,5.55
2018-06-22T11:51:59.719Z,5.40
2018-06-22T11:54:34.204Z,5.28
2018-06-22T11:57:08.987Z,8.23
2018-06-22T11:59:42.161Z,5.50
2018-06-22T12:02:11.555Z,7.15
2018-06-22T12:04:44.526Z,10.23
2018-06-22T12:07:16.322Z,5.28
2018-06-22T12:09:47.709Z,4.82
2018-06-22T12:12:20.686Z,7.12
2018-06-22T12:14:55.416Z,6.32
2018-06-22T12:17:27.657Z,2.90
2018-06-22T12:20:00.763Z,7.28
2018-06-22T12:22:35.090Z,8.55
2018-06-22T12:25:08.212Z,6.30
2018-06-22T12:27:42.842Z,6.00
2018-06-22T12:30:13.233Z,5.57
2018-06-22T12:32:46.155Z,6.55
2018-06-22T12:35:19.065Z,7.43
2018-06-22T12:37:53.802Z,4.45
2018-06-22T12:40:26.669Z,4.22
2018-06-22T12:43:01.019Z,6.25
2018-06-22T12:45:31.019Z,6.87
2018-06-22T12:48:02.998Z,3.97
2018-06-22T12:50:34.536Z,4.55
2018-06-22T12:53:09.102Z,3.50
2018-06-22T12:55:42.148Z,2.72
2018-06-22T12:58:16.878Z,4.95
2018-06-22T13:00:51.389Z,5.90
2018-06-22T13:03:26.017Z,3.87
2018-06-22T13:05:59.127Z,6.45
2018-06-22T13:08:30.550Z,7.43
2018-06-22T13:11:03.760Z,3.05
2018-06-22T13:13:36.648Z,4.87
2018-06-22T13:16:09.947Z,5.50
2018-06-22T13:18:42.200Z,5.95
2018-06-22T13:21:15.286Z,7.83
2018-06-22T13:23:46.204Z,7.90
2018-06-22T13:26:19.291Z,9.82
2018-06-22T13:28:53.971Z,6.40
2018-06-22T13:31:24.682Z,4.43
2018-06-22T13:33:55.331Z,2.33
2018-06-22T13:36:27.157Z,6.30
2018-06-22T13:39:00.069Z,7.55
2018-06-22T13:41:30.077Z,6.75
2018-06-22T13:44:01.936Z,3.05
2018-06-22T13:46:35.129Z,4.12
2018-06-22T13:49:06.766Z,7.37
2018-06-22T13:51:39.920Z,5.93
2018-06-22T13:54:12.943Z,5.10
2018-06-22T13:56:47.451Z,5.43
2018-06-22T13:59:19.513Z,7.07
2018-06-22T14:01:50.336Z,6.20
2018-06-22T14:04:39.621Z,6.30
2018-06-22T14:07:10.997Z,9.02
2018-06-22T14:09:42.230Z,13.05
2018-06-22T14:12:13.683Z,6.12
2018-06-22T14:14:45.072Z,9.05
2018-06-22T14:17:18.335Z,9.80
2018-06-22T14:19:49.824Z,9.43
2018-06-22T14:22:22.767Z,10.63
2018-06-22T14:24:54.198Z,13.30
2018-06-22T14:27:25.777Z,8.15
2018-06-22T14:29:59.263Z,9.15
2018-06-22T14:32:32.258Z,7.97
2018-06-22T14:35:05.173Z,9.43
2018-06-22T14:37:38.508Z,5.28
2018-06-22T14:40:10.053Z,10.07
2018-06-22T14:42:40.957Z,7.95
2018-06-22T14:45:14.111Z,11.63
2018-06-22T14:47:47.262Z,5.87
2018-06-22T14:50:21.855Z,4.53
2018-06-22T14:52:52.915Z,10.27
2018-06-22T14:55:40.591Z,12.07
2018-06-22T14:58:31.293Z,7.70
2018-06-22T15:01:21.890Z,6.90
2018-06-22T15:04:11.077Z,10.32
2018-06-22T15:06:59.854Z,9.13
2018-06-22T15:09:32.865Z,8.35
2018-06-22T15:12:05.888Z,16.17
2018-06-22T15:18:29.382Z,6.75
2018-06-22T15:21:09.768Z,9.98
2018-06-22T15:23:42.941Z,9.25
2018-06-22T15:26:17.091Z,6.87
2018-06-22T15:28:48.471Z,8.38
2018-06-22T15:31:18.325Z,11.00
2018-06-22T15:34:06.803Z,12.20
2018-06-22T15:36:55.160Z,9.95
2018-06-22T15:39:44.642Z,9.25
2018-06-22T15:42:33.229Z,11.93
2018-06-22T15:45:21.259Z,5.87
2018-06-22T15:48:10.437Z,7.93
2018-06-22T15:51:14.442Z,5.93
2018-06-22T15:54:04.942Z,8.38
2018-06-22T15:56:37.837Z,10.38
2018-06-22T15:59:10.687Z,10.13
2018-06-22T16:01:42.031Z,8.88
2018-06-22T16:04:15.833Z,8.93
2018-06-22T16:06:50.134Z,8.65
2018-06-22T16:09:24.514Z,11.00
2018-06-22T16:12:14.812Z,11.32
2018-06-22T16:15:05.518Z,11.65
2018-06-22T16:17:54.481Z,10.60
2018-06-22T16:20:43.843Z,10.57
2018-06-22T16:23:32.069Z,15.75
2018-06-22T16:26:21.758Z,12.73
2018-06-22T16:28:55.126Z,13.50
2018-06-22T16:31:26.455Z,15.07
2018-06-22T16:33:59.787Z,13.68
2018-06-22T16:36:32.706Z,14.15
2018-06-22T16:39:06.258Z,17.48
2018-06-22T16:41:40.027Z,13.52
2018-06-22T16:44:15.563Z,18.50
2018-06-22T16:46:47.564Z,23.27
2018-06-22T16:49:18.998Z,14.98
2018-06-22T16:51:53.237Z,11.82
2018-06-22T16:54:24.578Z,21.50
2018-06-22T16:56:57.523Z,13.07
2018-06-22T16:59:28.952Z,17.35
2018-06-22T17:02:01.809Z,16.10
2018-06-22T17:04:34.670Z,15.32
2018-06-22T17:07:23.663Z,15.20
2018-06-22T17:10:13.862Z,12.40
2018-06-22T17:13:04.272Z,18.40
2018-06-22T17:15:54.240Z,18.58
2018-06-22T17:18:43.194Z,19.70
2018-06-22T17:21:15.950Z,14.13
2018-06-22T17:23:48.016Z,15.63
2018-06-22T17:26:18.007Z,18.37
2018-06-22T17:28:49.496Z,16.48
2018-06-22T17:31:22.304Z,12.73
2018-06-22T17:33:54.524Z,11.18
2018-06-22T17:36:25.941Z,9.23
2018-06-22T17:38:58.990Z,14.82
2018-06-22T17:41:31.896Z,11.63
2018-06-22T17:44:06.209Z,15.63
2018-06-22T17:46:36.926Z,16.10
2018-06-22T17:49:10.587Z,14.48
2018-06-22T17:51:43.468Z,9.00
2018-06-22T17:54:15.933Z,14.10
2018-06-22T17:56:47.331Z,16.75
2018-06-22T17:59:34.086Z,14.52
2018-06-22T18:02:23.323Z,15.23
2018-06-22T18:05:11.904Z,20.17
2018-06-22T18:07:45.671Z,20.17
2018-06-22T18:10:36.393Z,17.55
2018-06-22T18:13:06.329Z,18.73
2018-06-22T18:15:39.241Z,16.48
2018-06-22T18:18:12.289Z,11.43
2018-06-22T18:20:43.611Z,18.05
2018-06-22T18:23:15.005Z,14.60
2018-06-22T18:25:47.303Z,15.25
2018-06-22T18:28:17.244Z,13.82
2018-06-22T18:30:48.694Z,17.37
2018-06-22T18:33:19.292Z,14.68
2018-06-22T18:35:50.776Z,15.93
2018-06-22T18:38:22.219Z,12.93
2018-06-22T18:40:57.158Z,12.37
2018-06-22T18:43:46.232Z,22.70
2018-06-22T18:46:20.593Z,12.85
2018-06-22T18:48:53.497Z,15.82
2018-06-22T18:51:24.994Z,17.37
2018-06-22T18:54:13.283Z,16.15
2018-06-22T18:57:02.597Z,21.98
2018-06-22T18:59:43.479Z,22.27
2018-06-22T19:02:32.538Z,16.05
2018-06-22T19:05:05.412Z,17.90
2018-06-22T19:07:39.783Z,17.35
2018-06-22T19:10:09.736Z,16.12
2018-06-22T19:12:42.895Z,16.92
2018-06-22T19:15:15.942Z,13.60
2018-06-22T19:17:47.355Z,17.85
2018-06-22T19:20:20.284Z,13.25
2018-06-22T19:22:51.580Z,18.73
2018-06-22T19:25:24.371Z,17.50
2018-06-22T19:27:57.234Z,16.98
2018-06-22T19:30:28.164Z,19.70
2018-06-22T19:33:00.476Z,20.58
2018-06-22T19:35:32.778Z,19.75
2018-06-22T19:38:02.748Z,22.35
2018-06-22T19:40:37.102Z,20.27
2018-06-22T19:43:09.072Z,19.98
2018-06-22T19:45:58.556Z,21.70
2018-06-22T19:48:47.390Z,16.85
2018-06-22T19:51:34.936Z,19.27
2018-06-22T19:54:08.082Z,21.00
2018-06-22T19:56:37.976Z,18.05
2018-06-22T19:59:09.376Z,18.33
2018-06-22T20:01:41.099Z,16.48
2018-06-22T20:04:12.484Z,21.33
2018-06-22T20:06:46.734Z,19.62
2018-06-22T20:09:19.446Z,24.55
2018-06-22T20:11:52.374Z,16.73
2018-06-22T20:14:24.463Z,21.62
2018-06-22T20:16:56.340Z,14.43
2018-06-22T20:19:30.823Z,17.23
2018-06-22T20:22:03.897Z,18.30
2018-06-22T20:24:53.062Z,24.42
2018-06-22T20:27:26.047Z,17.20
2018-06-22T20:30:00.440Z,22.05
2018-06-22T20:32:33.411Z,21.58
2018-06-22T20:35:21.604Z,16.73
2018-06-22T20:38:10.872Z,17.73
2018-06-22T20:41:00.346Z,22.02
2018-06-22T20:43:48.400Z,19.52
2018-06-22T20:46:37.338Z,20.12
2018-06-22T20:49:26.506Z,16.85
2018-06-22T20:51:58.885Z,14.65
2018-06-22T20:54:31.688Z,19.90
2018-06-22T20:57:03.296Z,17.92
2018-06-22T20:59:37.634Z,20.08
2018-06-22T21:02:09.291Z,19.23
2018-06-22T21:04:42.557Z,16.00
2018-06-22T21:07:15.724Z,21.45
2018-06-22T21:09:49.347Z,21.73
2018-06-22T21:12:26.253Z,14.13
2018-06-22T21:14:50.722Z,11.85
2018-06-22T21:17:24.989Z,24.02
2018-06-22T21:19:58.901Z,22.25
2018-06-22T21:22:31.945Z,23.98
2018-06-22T21:25:03.256Z,25.65
2018-06-22T21:27:52.365Z,17.23
2018-06-22T21:30:42.862Z,24.27
2018-06-22T21:33:31.827Z,24.35
2018-06-22T21:36:20.920Z,20.98
2018-06-22T21:39:06.593Z,21.23
2018-06-22T21:41:38.933Z,17.00
2018-06-22T21:44:13.550Z,21.15
2018-06-22T21:46:45.031Z,19.40
2018-06-22T21:49:17.165Z,25.90
2018-06-22T21:51:48.888Z,17.25
2018-06-22T21:54:19.566Z,18.70
2018-06-22T21:56:52.667Z,13.45
2018-06-22T21:59:24.675Z,24.35
2018-06-22T22:01:57.482Z,21.23
2018-06-22T22:04:30.988Z,21.05
2018-06-22T22:07:01.719Z,18.45
2018-06-22T22:09:46.201Z,22.67
2018-06-22T22:12:19.154Z,23.62
2018-06-22T22:14:50.480Z,22.08
2018-06-22T22:17:23.821Z,18.60
2018-06-22T22:19:53.736Z,17.45
2018-06-22T22:22:26.556Z,20.55
2018-06-22T22:24:57.917Z,19.05
2018-06-22T22:27:30.771Z,23.02
2018-06-22T22:30:03.157Z,17.67
2018-06-22T22:32:35.928Z,18.02
2018-06-22T22:35:10.379Z,14.80
2018-06-22T22:37:40.422Z,15.65
2018-06-22T22:40:12.229Z,21.08
2018-06-22T22:42:44.376Z,14.73
2018-06-22T22:45:17.217Z,19.12
2018-06-22T22:47:47.826Z,17.40
2018-06-22T22:50:20.769Z,14.00
2018-06-22T22:52:53.560Z,15.13
2018-06-22T22:55:28.241Z,17.95
2018-06-22T22:58:02.587Z,15.48
2018-06-22T23:00:35.529Z,20.85
2018-06-22T23:03:09.831Z,17.52
2018-06-22T23:05:42.831Z,16.83
2018-06-22T23:08:14.227Z,14.70
2018-06-22T23:10:45.274Z,20.80
2018-06-22T23:13:18.468Z,24.15
2018-06-22T23:15:49.894Z,21.58
2018-06-22T23:18:19.764Z,19.70
2018-06-22T23:20:52.804Z,20.10
2018-06-22T23:23:51.560Z,19.17
2018-06-22T23:26:21.647Z,22.87
2018-06-22T23:28:54.429Z,15.68
2018-06-22T23:31:27.325Z,13.07
2018-06-22T23:34:00.261Z,21.08
2018-06-22T23:36:31.728Z,20.83
2018-06-22T23:39:05.633Z,14.85
2018-06-22T23:41:39.938Z,19.58
2018-06-22T23:44:13.170Z,20.90
2018-06-22T23:46:46.009Z,20.98
2018-06-22T23:49:17.169Z,14.27
2018-06-22T23:51:51.827Z,19.42
2018-06-22T23:54:26.187Z,18.17
2018-06-22T23:57:00.831Z,13.90
2018-06-22T23:59:33.861Z,14.45
